Taiwan Taoyuan International Airport
RCTP : rendu visible

Aérodrome :











RETROUVEZ-NOUS SUR...

 
LOGIN :

S'inscrire | Disclaimer

   EN    FR    IT 

 









Légende :    VFR   VFR Marginal   IFR   IFR Intensif   IFR Très Intensif
Visi : 
Plafond : 
>= 8 km
>= 3000ft
5 à 8 km
1000 à 3000 ft
1500m à 5 km
500 à 1000 ft
800 à 1500m
200 à 500 ft
< 800m
< 200 ft
Symboles :   Orages  Brouillard  Fortes neiges  Fortes précipitations  Vent > 20 kt






- Altitude de l'aérodrome : 106 ft
- Code IATA : TPE


RCTP - Taiwan Taoyuan International

DERNIER METAR :
  • 122300Z 16007KT 9999 FEW020 21/15 Q1018 NOSIG RMK A3007

METARs EXPIRÉS :
  • 122230Z 17007KT 9999 FEW020 20/15 Q1018 NOSIG RMK A3006
  • 122200Z 17007KT 140V200 9999 FEW020 20/15 Q1017 NOSIG RMK A3005
  • 122130Z 16006KT 120V190 9999 FEW020 20/15 Q1017 NOSIG RMK A3004
  • 122100Z 14006KT 9999 FEW020 20/15 Q1016 NOSIG RMK A3003
  • 122030Z 16004KT 110V230 9999 FEW020 18/15 Q1016 NOSIG RMK A3003

TAF TAF RCTP
Valide du 12 à 18h jusqu'au 14 à 00h UTC


121700Z 1218/1324 12005KT 9999 FEW020
BECMG 1301/1303 02008KT
BECMG 1310/1312 04018KT FEW015 BKN032
TEMPO 1318/1324 05020G30KT



MET'MAP, la Météo Aéronautique d'un coup d'oeil ! - Copyright ORBIFLY Décembre 2007 - Disclaimer

ORBIFLY MET'MAP TEAM :

Programmation & Développement : Alexandra Zaïnal
Conception & Développement : Baudouin d'Aumeries
Co-Programmation & Développement : Marc-Olivier Méhu
Soutien technique & logistique : Manuel Goepfert

Contact : metmap@orbifly.com




SOURCES & CREDITS :

   NOAA       Earth
Advisory